Mantorville, Minnesota
Current Conditions -  °F | °C
As of 4:33 PM on Friday 28 Nov 2014 (Local Time) from KTOB Reporting Station
Broken Clouds Broken Clouds  
Wind Chill: 14°   Ceiling: 11000
Heat Index: 25°   Visibility: 10mi
Dew Point: 21°   Wind: 12mph
Humidity: 86%   Direction: 140°SE
Pressure: 29.79"   Gusts: NA
Location:  44.07°N, 92.76°W
Report Text: KTOB 282233Z AUTO 14010KT 10SM BKN110 M04/M06 A2979 RMK AO2
Loading
Personal Weather Stations






























Interactive Weather Map New forecast layout! Learn more

10-Day Weather Forecast

Advertisements
Track Severe Weather on mobile